createdAt,value
2019-03-19T00:01:46.702Z,61.60
2019-03-19T00:04:14.561Z,61.90
2019-03-19T00:06:42.213Z,62.00
2019-03-19T00:09:09.900Z,61.70
2019-03-19T00:11:37.517Z,61.70
2019-03-19T00:14:05.159Z,61.60
2019-03-19T00:16:32.940Z,61.90
2019-03-19T00:19:00.575Z,62.00
2019-03-19T00:21:28.204Z,62.40
2019-03-19T00:23:55.901Z,62.30
2019-03-19T00:26:23.610Z,62.00
2019-03-19T00:28:51.246Z,62.20
2019-03-19T00:31:18.978Z,62.00
2019-03-19T00:33:46.739Z,62.20
2019-03-19T00:36:14.426Z,62.20
2019-03-19T00:38:42.131Z,62.40
2019-03-19T00:41:09.831Z,62.50
2019-03-19T00:43:37.489Z,62.50
2019-03-19T00:46:05.116Z,62.70
2019-03-19T00:48:33.569Z,62.40
2019-03-19T00:51:01.217Z,62.40
2019-03-19T00:53:28.896Z,62.30
2019-03-19T00:55:56.538Z,62.30
2019-03-19T00:58:24.237Z,62.50
2019-03-19T01:00:52.011Z,62.50
2019-03-19T01:03:19.533Z,62.00
2019-03-19T01:05:47.208Z,61.70
2019-03-19T01:08:14.919Z,61.50
2019-03-19T01:10:42.550Z,62.00
2019-03-19T01:13:10.180Z,61.70
2019-03-19T01:15:37.871Z,61.30
2019-03-19T01:18:05.508Z,61.40
2019-03-19T01:20:33.252Z,61.40
2019-03-19T01:23:00.887Z,61.20
2019-03-19T01:25:28.530Z,61.50
2019-03-19T01:27:56.185Z,61.50
2019-03-19T01:30:23.833Z,61.10
2019-03-19T01:32:51.461Z,60.90
2019-03-19T01:35:19.133Z,61.10
2019-03-19T01:37:46.819Z,61.30
2019-03-19T01:40:14.581Z,61.70
2019-03-19T01:42:42.241Z,61.90
2019-03-19T01:45:10.484Z,62.00
2019-03-19T01:47:38.236Z,62.00
2019-03-19T01:50:06.290Z,62.70
2019-03-19T01:52:34.021Z,61.90
2019-03-19T01:55:01.745Z,62.10
2019-03-19T01:57:29.425Z,62.00
2019-03-19T01:59:57.071Z,62.00
2019-03-19T02:02:24.719Z,61.90
2019-03-19T02:04:52.417Z,61.70
2019-03-19T02:07:20.105Z,61.40
2019-03-19T02:09:47.765Z,61.10
2019-03-19T02:12:15.314Z,61.30
2019-03-19T02:14:42.969Z,61.20
2019-03-19T02:17:12.618Z,61.10
2019-03-19T02:19:40.225Z,61.30
2019-03-19T02:22:07.979Z,61.30
2019-03-19T02:24:35.692Z,61.10
2019-03-19T02:27:03.341Z,60.90
2019-03-19T02:29:31.138Z,60.80
2019-03-19T02:31:58.766Z,60.30
2019-03-19T02:34:26.413Z,60.50
2019-03-19T02:36:54.115Z,60.80
2019-03-19T02:39:21.941Z,60.90
2019-03-19T02:41:49.667Z,60.70
2019-03-19T02:44:17.496Z,60.70
2019-03-19T02:46:45.153Z,61.00
2019-03-19T02:49:12.799Z,60.60
2019-03-19T02:51:40.477Z,60.60
2019-03-19T02:54:08.117Z,60.60
2019-03-19T02:56:36.905Z,61.10
2019-03-19T02:59:04.585Z,61.40
2019-03-19T03:01:32.281Z,61.50
2019-03-19T03:03:59.924Z,61.10
2019-03-19T03:06:27.638Z,61.30
2019-03-19T03:08:55.283Z,61.70
2019-03-19T03:11:22.938Z,61.80
2019-03-19T03:13:50.604Z,62.00
2019-03-19T03:16:18.277Z,61.80
2019-03-19T03:18:45.921Z,61.70
2019-03-19T03:21:13.623Z,61.70
2019-03-19T03:23:41.320Z,61.60
2019-03-19T03:26:09.082Z,60.90
2019-03-19T03:28:36.717Z,61.10
2019-03-19T03:31:04.389Z,61.10
2019-03-19T03:33:33.289Z,61.00
2019-03-19T03:36:01.162Z,60.50
2019-03-19T03:38:28.787Z,61.10
2019-03-19T03:40:56.465Z,60.30
2019-03-19T03:43:24.090Z,60.50
2019-03-19T03:45:51.818Z,61.10
2019-03-19T03:48:19.454Z,61.10
2019-03-19T03:50:47.232Z,61.10
2019-03-19T03:53:15.055Z,61.00
2019-03-19T03:55:42.787Z,61.30
2019-03-19T03:58:10.542Z,60.70
2019-03-19T04:00:38.181Z,61.40
2019-03-19T04:03:05.876Z,60.90
2019-03-19T04:05:33.517Z,60.70
2019-03-19T04:08:01.198Z,60.70
2019-03-19T04:10:28.860Z,60.70
2019-03-19T04:12:56.630Z,60.60
2019-03-19T04:15:24.265Z,59.90
2019-03-19T04:17:51.939Z,60.00
2019-03-19T04:20:19.628Z,59.90
2019-03-19T04:22:47.344Z,60.10
2019-03-19T04:25:15.095Z,60.10
2019-03-19T04:27:42.862Z,60.90
2019-03-19T04:30:10.820Z,61.30
2019-03-19T04:32:38.549Z,61.00
2019-03-19T04:35:06.563Z,61.40
2019-03-19T04:37:34.225Z,62.10
2019-03-19T04:40:01.934Z,61.70
2019-03-19T04:42:29.626Z,61.70
2019-03-19T04:44:57.277Z,61.60
2019-03-19T04:47:24.913Z,61.10
2019-03-19T04:49:52.581Z,61.60
2019-03-19T04:52:20.322Z,61.60
2019-03-19T04:54:48.148Z,61.80
2019-03-19T04:57:26.011Z,61.60
2019-03-19T04:59:45.466Z,61.70
2019-03-19T05:02:13.137Z,62.10
2019-03-19T05:04:41.622Z,61.40
2019-03-19T05:07:09.278Z,61.10
2019-03-19T05:09:36.953Z,61.90
2019-03-19T05:12:04.654Z,62.70
2019-03-19T05:14:33.903Z,62.00
2019-03-19T05:17:01.576Z,62.20
2019-03-19T05:19:30.397Z,62.10
2019-03-19T05:21:58.065Z,62.00
2019-03-19T05:24:26.833Z,62.10
2019-03-19T05:26:55.835Z,62.10
2019-03-19T05:29:23.505Z,62.10
2019-03-19T05:31:51.146Z,62.20
2019-03-19T05:34:19.942Z,62.60
2019-03-19T05:36:47.713Z,62.90
2019-03-19T05:39:15.498Z,62.90
2019-03-19T05:41:43.306Z,62.90
2019-03-19T05:44:11.071Z,62.80
2019-03-19T05:46:38.756Z,62.30
2019-03-19T05:49:07.201Z,62.60
2019-03-19T05:51:36.638Z,62.40
2019-03-19T05:54:04.353Z,62.30
2019-03-19T05:56:32.055Z,62.40
2019-03-19T05:59:01.354Z,62.90
2019-03-19T06:01:29.153Z,63.10
2019-03-19T06:03:58.606Z,62.90
2019-03-19T06:06:26.369Z,62.60
2019-03-19T06:08:54.052Z,62.90
2019-03-19T06:11:24.737Z,63.00
2019-03-19T06:13:52.409Z,63.30
2019-03-19T06:16:20.057Z,63.00
2019-03-19T06:18:47.721Z,62.60
2019-03-19T06:21:15.839Z,62.70
2019-03-19T06:23:43.534Z,62.80
2019-03-19T06:26:11.176Z,62.80
2019-03-19T06:28:38.827Z,62.30
2019-03-19T06:31:06.500Z,62.90
2019-03-19T06:33:34.150Z,62.80
2019-03-19T06:36:01.894Z,62.70
2019-03-19T06:38:29.609Z,62.80
2019-03-19T06:40:57.335Z,62.70
2019-03-19T06:43:25.038Z,62.80
2019-03-19T06:45:52.694Z,62.70
2019-03-19T06:48:20.502Z,62.50
2019-03-19T06:50:48.194Z,62.40
2019-03-19T06:53:15.880Z,62.80
2019-03-19T06:55:43.525Z,62.50
2019-03-19T06:58:11.584Z,62.50
2019-03-19T07:00:39.445Z,62.90
2019-03-19T07:03:07.090Z,62.90
2019-03-19T07:05:34.762Z,62.30
2019-03-19T07:08:02.416Z,62.60
2019-03-19T07:10:30.053Z,62.50
2019-03-19T07:12:58.125Z,62.40
2019-03-19T07:15:26.897Z,62.90
2019-03-19T07:17:54.564Z,62.90
2019-03-19T07:20:22.245Z,62.90
2019-03-19T07:22:50.233Z,63.40
2019-03-19T07:25:18.209Z,64.30
2019-03-19T07:27:46.972Z,62.80
2019-03-19T07:30:15.753Z,62.00
2019-03-19T07:32:43.391Z,60.70
2019-03-19T07:35:11.069Z,60.60
2019-03-19T07:37:39.850Z,59.40
2019-03-19T07:40:08.565Z,57.80
2019-03-19T07:42:36.854Z,59.70
2019-03-19T07:45:05.448Z,58.80
2019-03-19T07:47:33.129Z,58.00
2019-03-19T07:50:00.806Z,58.00
2019-03-19T07:52:28.865Z,58.20
2019-03-19T07:54:56.588Z,58.10
2019-03-19T07:57:24.373Z,57.10
2019-03-19T07:59:52.052Z,57.10
2019-03-19T08:02:19.869Z,56.70
2019-03-19T08:04:47.588Z,56.10
2019-03-19T08:07:15.254Z,57.20
2019-03-19T08:09:42.936Z,56.90
2019-03-19T08:12:10.557Z,57.20
2019-03-19T08:14:38.226Z,57.00
2019-03-19T08:17:05.939Z,54.60
2019-03-19T08:19:33.662Z,54.40
2019-03-19T08:22:01.337Z,54.70
2019-03-19T08:24:31.149Z,54.00
2019-03-19T08:26:58.877Z,54.60
2019-03-19T08:29:26.591Z,54.80
2019-03-19T08:31:55.297Z,57.50
2019-03-19T08:34:23.015Z,56.20
2019-03-19T08:36:50.905Z,56.30
2019-03-19T08:39:18.715Z,57.40
2019-03-19T08:41:46.390Z,55.40
2019-03-19T08:44:14.044Z,54.00
2019-03-19T08:46:41.697Z,55.10
2019-03-19T08:49:09.403Z,52.30
2019-03-19T08:51:37.172Z,52.90
2019-03-19T08:54:04.948Z,52.70
2019-03-19T08:56:32.642Z,52.80
2019-03-19T08:59:05.779Z,52.70
2019-03-19T09:01:29.834Z,53.00
2019-03-19T09:03:57.648Z,52.90
2019-03-19T09:06:25.280Z,52.00
2019-03-19T09:08:52.929Z,51.90
2019-03-19T09:11:21.162Z,50.70
2019-03-19T09:13:48.809Z,50.40
2019-03-19T09:16:16.601Z,49.90
2019-03-19T09:18:44.351Z,51.50
2019-03-19T09:21:12.058Z,49.90
2019-03-19T09:23:39.731Z,48.30
2019-03-19T09:26:25.937Z,49.90
2019-03-19T09:28:53.839Z,49.10
2019-03-19T09:31:21.477Z,50.20
2019-03-19T09:33:49.095Z,49.80
2019-03-19T09:36:16.773Z,49.90
2019-03-19T09:38:44.535Z,49.00
2019-03-19T09:41:12.570Z,48.50
2019-03-19T09:43:41.354Z,49.60
2019-03-19T09:46:10.811Z,47.10
2019-03-19T09:48:38.463Z,47.30
2019-03-19T09:51:06.189Z,44.80
2019-03-19T09:53:36.645Z,43.10
2019-03-19T09:56:05.002Z,44.40
2019-03-19T09:58:32.864Z,43.60
2019-03-19T10:01:00.654Z,42.10
2019-03-19T10:03:28.306Z,43.50
2019-03-19T10:05:55.993Z,43.60
2019-03-19T10:08:23.683Z,43.70
2019-03-19T10:10:52.539Z,44.70
2019-03-19T10:13:22.319Z,44.50
2019-03-19T10:15:49.943Z,43.90
2019-03-19T10:18:17.610Z,44.50
2019-03-19T10:20:45.268Z,42.60
2019-03-19T10:23:13.000Z,44.00
2019-03-19T10:25:40.744Z,40.70
2019-03-19T10:28:08.415Z,42.20
2019-03-19T10:30:36.026Z,41.80
2019-03-19T10:33:03.730Z,40.90
2019-03-19T10:35:31.369Z,41.00
2019-03-19T10:37:59.051Z,42.30
2019-03-19T10:40:26.833Z,40.70
2019-03-19T10:42:54.693Z,41.20
2019-03-19T10:45:22.427Z,41.00
2019-03-19T10:47:50.189Z,39.90
2019-03-19T10:50:18.674Z,40.30
2019-03-19T10:52:46.421Z,39.70
2019-03-19T10:55:14.119Z,37.70
2019-03-19T10:57:41.858Z,38.20
2019-03-19T11:00:15.526Z,38.00
2019-03-19T11:02:43.354Z,37.30
2019-03-19T11:05:11.217Z,39.00
2019-03-19T11:07:40.177Z,37.80
2019-03-19T11:10:13.020Z,37.60
2019-03-19T11:12:42.145Z,36.60
2019-03-19T11:15:12.137Z,36.70
2019-03-19T11:17:39.868Z,38.80
2019-03-19T11:20:09.027Z,39.00
2019-03-19T11:22:36.690Z,35.70
2019-03-19T11:25:06.082Z,38.00
2019-03-19T11:27:33.950Z,36.20
2019-03-19T11:30:01.673Z,36.30
2019-03-19T11:32:29.409Z,34.10
2019-03-19T11:34:57.242Z,35.30
2019-03-19T11:37:24.887Z,33.60
2019-03-19T11:39:52.709Z,35.10
2019-03-19T11:42:20.377Z,33.40
2019-03-19T11:44:48.057Z,33.70
2019-03-19T11:47:15.741Z,32.00
2019-03-19T11:49:43.406Z,33.00
2019-03-19T11:52:11.077Z,36.00
2019-03-19T11:54:38.750Z,35.70
2019-03-19T11:57:06.417Z,33.10
2019-03-19T11:59:35.649Z,33.60
2019-03-19T12:02:03.369Z,34.80
2019-03-19T12:04:31.036Z,34.30
2019-03-19T12:06:58.695Z,33.40
2019-03-19T12:09:26.396Z,32.00
2019-03-19T12:11:54.066Z,34.20
2019-03-19T12:14:21.733Z,34.30
2019-03-19T12:16:49.414Z,32.90
2019-03-19T12:19:17.175Z,33.50
2019-03-19T12:21:44.999Z,30.80
2019-03-19T12:24:12.785Z,34.60
2019-03-19T12:26:40.458Z,30.30
2019-03-19T12:29:08.142Z,29.90
2019-03-19T12:31:35.833Z,29.10
2019-03-19T12:34:03.597Z,29.70
2019-03-19T12:36:31.285Z,31.80
2019-03-19T12:38:59.069Z,29.90
2019-03-19T12:41:26.768Z,32.40
2019-03-19T12:43:54.453Z,30.40
2019-03-19T12:46:22.144Z,27.40
2019-03-19T12:48:49.853Z,31.30
2019-03-19T12:51:18.617Z,29.20
2019-03-19T12:53:46.329Z,27.10
2019-03-19T12:56:14.003Z,28.10
2019-03-19T12:58:41.687Z,25.40
2019-03-19T13:01:09.557Z,27.70
2019-03-19T13:03:37.263Z,29.70
2019-03-19T13:06:04.937Z,29.40
2019-03-19T13:08:32.695Z,27.90
2019-03-19T13:11:00.583Z,27.30
2019-03-19T13:13:29.342Z,28.40
2019-03-19T13:15:57.125Z,27.70
2019-03-19T13:18:25.956Z,28.30
2019-03-19T13:20:53.730Z,26.60
2019-03-19T13:23:21.430Z,28.20
2019-03-19T13:25:49.117Z,28.20
2019-03-19T13:28:16.795Z,25.70
2019-03-19T13:30:45.607Z,27.20
2019-03-19T13:33:13.337Z,27.00
2019-03-19T13:35:41.009Z,27.80
2019-03-19T13:38:08.754Z,28.90
2019-03-19T13:40:36.521Z,28.00
2019-03-19T13:43:04.189Z,29.40
2019-03-19T13:45:33.691Z,27.80
2019-03-19T13:48:01.841Z,27.10
2019-03-19T13:50:29.532Z,27.90
2019-03-19T13:52:57.263Z,27.60
2019-03-19T13:55:26.869Z,28.10
2019-03-19T13:57:56.455Z,26.70
2019-03-19T14:00:26.050Z,28.90
2019-03-19T14:02:54.902Z,28.40
2019-03-19T14:05:22.703Z,29.40
2019-03-19T14:07:50.383Z,27.10
2019-03-19T14:10:18.330Z,26.40
2019-03-19T14:12:47.813Z,24.90
2019-03-19T14:15:15.569Z,25.20
2019-03-19T14:17:43.338Z,25.70
2019-03-19T14:20:12.788Z,25.60
2019-03-19T14:22:40.509Z,27.00
2019-03-19T14:25:08.414Z,26.70
2019-03-19T14:27:36.193Z,27.10
2019-03-19T14:30:05.143Z,26.40
2019-03-19T14:32:33.869Z,26.10
2019-03-19T14:35:01.523Z,26.20
2019-03-19T14:37:29.191Z,27.30
2019-03-19T14:39:56.953Z,26.50
2019-03-19T14:42:24.658Z,25.70
2019-03-19T14:44:52.332Z,26.10
2019-03-19T14:47:21.114Z,27.50
2019-03-19T14:49:50.016Z,27.60
2019-03-19T14:52:17.933Z,26.70
2019-03-19T14:54:45.736Z,27.00
2019-03-19T14:57:13.449Z,26.40
2019-03-19T14:59:42.432Z,25.60
2019-03-19T15:02:10.137Z,26.10
2019-03-19T15:04:37.905Z,24.40
2019-03-19T15:07:05.707Z,25.80
2019-03-19T15:09:33.419Z,25.50
2019-03-19T15:12:01.492Z,25.50
2019-03-19T15:14:31.038Z,25.00
2019-03-19T15:17:04.770Z,26.10
2019-03-19T15:19:28.292Z,26.70
2019-03-19T15:21:56.228Z,26.80
2019-03-19T15:24:23.910Z,26.20
2019-03-19T15:26:51.709Z,24.90
2019-03-19T15:29:19.362Z,26.40
2019-03-19T15:31:47.153Z,25.70
2019-03-19T15:34:15.989Z,24.90
2019-03-19T15:36:43.697Z,25.40
2019-03-19T15:39:11.485Z,26.10
2019-03-19T15:41:40.267Z,26.20
2019-03-19T15:44:07.989Z,26.40
2019-03-19T15:46:35.909Z,25.60
2019-03-19T15:49:03.593Z,27.00
2019-03-19T15:51:31.289Z,27.90
2019-03-19T15:53:58.921Z,26.00
2019-03-19T15:56:27.201Z,25.50
2019-03-19T15:58:54.946Z,26.00
2019-03-19T16:01:22.619Z,28.60
2019-03-19T16:03:50.384Z,27.00
2019-03-19T16:06:18.054Z,27.20
2019-03-19T16:08:47.547Z,26.50
2019-03-19T16:11:15.277Z,27.30
2019-03-19T16:13:42.958Z,25.90
2019-03-19T16:16:10.594Z,27.20
2019-03-19T16:18:38.267Z,27.90
2019-03-19T16:21:05.944Z,26.90
2019-03-19T16:23:33.657Z,26.00
2019-03-19T16:26:01.660Z,27.30
2019-03-19T16:28:29.922Z,28.60
2019-03-19T16:30:57.569Z,28.20
2019-03-19T16:33:25.245Z,26.50
2019-03-19T16:35:52.917Z,26.30
2019-03-19T16:38:20.637Z,27.10
2019-03-19T16:40:48.313Z,27.90
2019-03-19T16:43:15.984Z,26.10
2019-03-19T16:45:45.471Z,27.70
2019-03-19T16:48:13.140Z,28.50
2019-03-19T16:50:40.870Z,27.00
2019-03-19T16:53:08.568Z,27.90
2019-03-19T16:55:36.348Z,27.40
2019-03-19T16:58:04.001Z,28.30
2019-03-19T17:00:31.841Z,28.00
2019-03-19T17:02:59.589Z,28.00
2019-03-19T17:05:27.297Z,28.50
2019-03-19T17:07:54.947Z,28.90
2019-03-19T17:10:22.703Z,29.80
2019-03-19T17:12:50.470Z,29.70
2019-03-19T17:15:18.107Z,30.00
2019-03-19T17:17:45.865Z,30.20
2019-03-19T17:20:13.922Z,29.70
2019-03-19T17:22:41.738Z,30.60
2019-03-19T17:25:11.120Z,30.80
2019-03-19T17:27:39.147Z,30.60
2019-03-19T17:30:13.423Z,30.00
2019-03-19T17:32:41.112Z,31.90
2019-03-19T17:35:09.211Z,30.90
2019-03-19T17:37:36.956Z,31.20
2019-03-19T17:40:05.237Z,32.40
2019-03-19T17:42:32.885Z,32.60
2019-03-19T17:45:00.706Z,32.70
2019-03-19T17:47:28.495Z,33.00
2019-03-19T17:49:56.172Z,32.70
2019-03-19T17:52:23.954Z,32.10
2019-03-19T17:54:51.837Z,33.30
2019-03-19T17:57:19.509Z,33.50
2019-03-19T17:59:47.172Z,32.60
2019-03-19T18:02:23.612Z,32.80
2019-03-19T18:04:45.241Z,33.10
2019-03-19T18:07:12.892Z,34.10
2019-03-19T18:09:40.586Z,33.80
2019-03-19T18:12:08.247Z,34.00
2019-03-19T18:14:35.957Z,34.50
2019-03-19T18:17:03.622Z,34.20
2019-03-19T18:19:31.344Z,34.60
2019-03-19T18:21:59.101Z,35.70
2019-03-19T18:24:26.913Z,36.30
2019-03-19T18:26:55.779Z,36.40
2019-03-19T18:29:23.573Z,36.00
2019-03-19T18:31:53.040Z,35.30
2019-03-19T18:34:20.710Z,36.10
2019-03-19T18:36:48.716Z,36.70
2019-03-19T18:39:16.549Z,37.40
2019-03-19T18:41:44.356Z,38.00
2019-03-19T18:44:12.042Z,37.10
2019-03-19T18:46:39.694Z,36.30
2019-03-19T18:49:07.508Z,35.20
2019-03-19T18:51:35.246Z,36.10
2019-03-19T18:54:03.122Z,36.80
2019-03-19T18:56:30.919Z,36.80
2019-03-19T18:58:58.581Z,37.00
2019-03-19T19:01:26.261Z,37.30
2019-03-19T19:03:53.939Z,36.20
2019-03-19T19:06:21.596Z,37.20
2019-03-19T19:08:51.086Z,37.60
2019-03-19T19:11:18.756Z,36.00
2019-03-19T19:13:46.441Z,36.60
2019-03-19T19:16:14.110Z,37.10
2019-03-19T19:18:41.814Z,39.30
2019-03-19T19:21:09.509Z,37.50
2019-03-19T19:23:37.477Z,37.50
2019-03-19T19:26:06.314Z,38.20
2019-03-19T19:28:34.010Z,38.90
2019-03-19T19:31:01.683Z,40.10
2019-03-19T19:33:29.400Z,41.30
2019-03-19T19:35:57.177Z,41.50
2019-03-19T19:38:24.847Z,42.30
2019-03-19T19:40:52.774Z,41.50
2019-03-19T19:43:20.497Z,42.40
2019-03-19T19:45:48.441Z,42.20
2019-03-19T19:48:16.137Z,42.40
2019-03-19T19:50:45.028Z,41.90
2019-03-19T19:53:12.731Z,42.00
2019-03-19T19:55:40.453Z,42.30
2019-03-19T19:58:08.171Z,42.30
2019-03-19T20:00:35.975Z,41.60
2019-03-19T20:03:11.763Z,41.90
2019-03-19T20:05:34.134Z,41.80
2019-03-19T20:08:01.950Z,41.70
2019-03-19T20:10:29.662Z,41.90
2019-03-19T20:12:58.507Z,41.30
2019-03-19T20:15:26.341Z,42.10
2019-03-19T20:17:54.040Z,42.20
2019-03-19T20:20:21.724Z,42.40
2019-03-19T20:22:49.489Z,42.40
2019-03-19T20:25:17.307Z,42.60
2019-03-19T20:27:45.058Z,42.30
2019-03-19T20:30:14.785Z,41.60
2019-03-19T20:32:42.577Z,42.10
2019-03-19T20:35:10.335Z,41.70
2019-03-19T20:37:38.401Z,42.80
2019-03-19T20:40:07.437Z,42.20
2019-03-19T20:42:35.178Z,42.70
2019-03-19T20:45:03.499Z,42.20
2019-03-19T20:47:31.561Z,43.00
2019-03-19T20:49:59.367Z,43.50
2019-03-19T20:52:27.229Z,43.60
2019-03-19T20:54:54.943Z,43.50
2019-03-19T20:57:23.755Z,43.50
2019-03-19T20:59:51.449Z,43.60
2019-03-19T21:02:19.166Z,43.40
2019-03-19T21:04:46.834Z,42.80
2019-03-19T21:07:15.495Z,43.60
2019-03-19T21:09:43.188Z,43.50
2019-03-19T21:12:10.850Z,43.50
2019-03-19T21:14:38.490Z,43.60
2019-03-19T21:17:07.201Z,43.50
2019-03-19T21:19:35.965Z,43.70
2019-03-19T21:22:04.620Z,43.30
2019-03-19T21:24:34.064Z,43.50
2019-03-19T21:27:01.869Z,44.00
2019-03-19T21:29:29.636Z,43.50
2019-03-19T21:31:57.424Z,43.40
2019-03-19T21:34:25.153Z,43.30
2019-03-19T21:36:52.790Z,43.40
2019-03-19T21:39:20.593Z,43.30
2019-03-19T21:41:48.259Z,43.20
2019-03-19T21:44:16.049Z,43.70
2019-03-19T21:46:43.829Z,43.90
2019-03-19T21:49:11.672Z,44.30
2019-03-19T21:51:39.367Z,44.80
2019-03-19T21:54:07.065Z,44.10
2019-03-19T21:56:35.992Z,45.10
2019-03-19T21:59:03.810Z,45.30
2019-03-19T22:01:31.581Z,45.40
2019-03-19T22:04:03.365Z,45.30
2019-03-19T22:06:31.083Z,44.90
2019-03-19T22:08:59.065Z,44.80
2019-03-19T22:11:26.889Z,45.10
2019-03-19T22:13:54.545Z,45.70
2019-03-19T22:16:22.197Z,46.50
2019-03-19T22:18:51.834Z,46.70
2019-03-19T22:21:19.509Z,47.50
2019-03-19T22:23:48.298Z,47.20
2019-03-19T22:26:15.985Z,47.50
2019-03-19T22:28:44.799Z,47.90
2019-03-19T22:31:12.492Z,47.90
2019-03-19T22:33:40.258Z,46.90
2019-03-19T22:36:07.928Z,47.30
2019-03-19T22:38:35.675Z,47.50
2019-03-19T22:41:03.323Z,46.40
2019-03-19T22:43:31.065Z,46.80
2019-03-19T22:46:00.634Z,46.90
2019-03-19T22:48:30.055Z,46.10
2019-03-19T22:50:58.730Z,46.30
2019-03-19T22:53:26.420Z,46.70
2019-03-19T22:55:54.952Z,47.10
2019-03-19T22:58:25.696Z,47.10
2019-03-19T23:00:57.652Z,47.20
2019-03-19T23:03:25.508Z,46.30
2019-03-19T23:05:53.213Z,46.30
2019-03-19T23:08:20.841Z,46.50
2019-03-19T23:10:48.486Z,46.20
2019-03-19T23:13:16.152Z,46.00
2019-03-19T23:15:43.807Z,46.40
2019-03-19T23:18:11.533Z,46.90
2019-03-19T23:20:39.248Z,47.30
2019-03-19T23:23:06.912Z,47.50
2019-03-19T23:25:34.697Z,48.00
2019-03-19T23:28:02.518Z,47.50
2019-03-19T23:30:30.155Z,47.60
2019-03-19T23:32:59.026Z,47.50
2019-03-19T23:35:26.865Z,47.70
2019-03-19T23:37:56.394Z,48.00
2019-03-19T23:40:24.169Z,47.70
2019-03-19T23:42:51.909Z,47.20
2019-03-19T23:45:19.564Z,47.20
2019-03-19T23:47:47.210Z,47.30
2019-03-19T23:50:14.990Z,47.10
2019-03-19T23:52:43.998Z,47.50
2019-03-19T23:55:11.686Z,47.40
2019-03-19T23:57:41.313Z,47.80
